Time;durP1;ratioP1;P1;durP2;ratioP2;P2;SDS_P1;SDS_P2;PMS_P1;PMS_P2;Temp;Humidity;BMP_temperature;BMP_pressure;BME280_temperature;BME280_humidity;BME280_pressure;Samples;Min_cycle;Max_cycle;Signal;HPM_P1;HPM_P2
2023/12/27 00:01:28;;;;;;;3.38;1.30;;;;;;;10.45;100.00;100566.03;5092060;28;20067;-41
2023/12/27 00:03:58;;;;;;;2.75;1.30;;;;;;;10.45;100.00;100556.25;5091850;28;20048;-42
2023/12/27 00:06:27;;;;;;;2.70;1.10;;;;;;;10.45;100.00;100561.56;5091997;28;20075;-43
2023/12/27 00:08:56;;;;;;;2.75;1.50;;;;;;;10.54;100.00;100560.22;5091057;28;20055;-42
2023/12/27 00:11:24;;;;;;;2.80;1.48;;;;;;;10.61;100.00;100564.25;5098308;28;20043;-42
2023/12/27 00:13:52;;;;;;;3.45;1.33;;;;;;;10.52;100.00;100562.09;5111817;28;20472;-41
2023/12/27 00:16:21;;;;;;;3.13;1.40;;;;;;;10.51;100.00;100585.22;5112279;28;20050;-42
2023/12/27 00:18:49;;;;;;;2.63;1.17;;;;;;;10.61;100.00;100580.25;5112645;28;20048;-42
2023/12/27 00:21:19;;;;;;;1.83;1.15;;;;;;;10.51;100.00;100579.03;5109154;28;20079;-43
2023/12/27 00:23:47;;;;;;;3.33;1.40;;;;;;;10.60;100.00;100575.84;5091961;28;20055;-43
2023/12/27 00:26:16;;;;;;;4.15;1.27;;;;;;;10.49;100.00;100586.25;5091766;28;20048;-43
2023/12/27 00:28:45;;;;;;;2.38;1.25;;;;;;;10.45;100.00;100598.91;5092409;28;20055;-42
2023/12/27 00:31:14;;;;;;;2.20;1.08;;;;;;;10.47;100.00;100599.69;5090861;28;20044;-43
2023/12/27 00:33:43;;;;;;;2.03;1.08;;;;;;;10.46;100.00;100616.63;5111443;28;20511;-43
2023/12/27 00:36:12;;;;;;;2.55;1.15;;;;;;;10.49;100.00;100618.25;5112046;28;20040;-42
2023/12/27 00:38:42;;;;;;;1.80;1.10;;;;;;;10.51;100.00;100614.56;5111660;28;20411;-43
2023/12/27 00:41:10;;;;;;;2.42;1.10;;;;;;;10.52;100.00;100618.13;5111932;28;20420;-42
2023/12/27 00:43:38;;;;;;;3.83;1.33;;;;;;;10.65;100.00;100620.97;5111712;28;20055;-42
2023/12/27 00:46:07;;;;;;;3.10;1.40;;;;;;;10.51;100.00;100624.38;5111780;28;20047;-42
2023/12/27 00:48:35;;;;;;;3.13;1.45;;;;;;;10.63;100.00;100622.88;5100533;28;20048;-43
2023/12/27 00:51:05;;;;;;;3.10;1.30;;;;;;;10.62;100.00;100619.34;5091221;28;20423;-41
2023/12/27 00:53:34;;;;;;;1.65;0.93;;;;;;;10.50;100.00;100619.97;5091412;28;20075;-44
2023/12/27 00:56:03;;;;;;;2.85;1.40;;;;;;;10.50;100.00;100630.66;5108889;28;20065;-43
2023/12/27 00:58:31;;;;;;;2.63;1.20;;;;;;;10.38;100.00;100631.31;5111510;28;20146;-43
2023/12/27 01:01:00;;;;;;;3.22;1.23;;;;;;;10.54;100.00;100634.91;5111813;28;20050;-43
2023/12/27 01:03:31;;;;;;;2.38;1.10;;;;;;;10.41;100.00;100633.81;5113753;28;20054;-43
2023/12/27 01:05:59;;;;;;;2.10;1.20;;;;;;;10.39;100.00;100644.56;5114001;28;20408;-42
2023/12/27 01:08:28;;;;;;;3.42;1.20;;;;;;;10.53;100.00;100647.38;5113621;28;20153;-42
2023/12/27 01:10:56;;;;;;;4.13;1.23;;;;;;;10.59;100.00;100648.81;5113340;28;20532;-50
2023/12/27 01:13:26;;;;;;;2.67;1.23;;;;;;;10.45;100.00;100654.91;5113104;28;20198;-42
2023/12/27 01:15:54;;;;;;;2.15;1.20;;;;;;;10.29;100.00;100654.84;5113486;28;20044;-41
2023/12/27 01:18:23;;;;;;;3.72;1.40;;;;;;;10.42;100.00;100668.41;5111402;28;20120;-42
2023/12/27 01:20:52;;;;;;;2.53;1.30;;;;;;;10.33;100.00;100668.91;5111615;28;20476;-42
2023/12/27 01:23:20;;;;;;;2.20;1.20;;;;;;;10.34;100.00;100669.75;5111617;28;20188;-42
2023/12/27 01:25:49;;;;;;;2.70;1.30;;;;;;;10.43;100.00;100683.47;5111468;28;20056;-42
2023/12/27 01:28:17;;;;;;;1.63;1.20;;;;;;;10.40;100.00;100688.09;5112218;28;20044;-42
2023/12/27 01:30:47;;;;;;;3.85;1.20;;;;;;;10.31;100.00;100687.63;5099467;28;20044;-41
2023/12/27 01:33:15;;;;;;;2.17;1.27;;;;;;;10.29;100.00;100686.84;5091205;28;20109;-41
2023/12/27 01:35:45;;;;;;;3.58;1.50;;;;;;;10.37;100.00;100689.13;5091080;28;20147;-41
2023/12/27 01:38:13;;;;;;;3.97;1.40;;;;;;;10.37;100.00;100693.59;5090673;28;20052;-42
2023/12/27 01:40:48;;;;;;;2.47;1.40;;;;;;;10.34;100.00;100683.09;5090701;28;20071;-42
2023/12/27 01:43:16;;;;;;;3.67;1.23;;;;;;;10.32;100.00;100685.81;5094469;28;20330;-42
2023/12/27 01:45:50;;;;;;;2.45;1.40;;;;;;;10.30;100.00;100685.91;5094773;28;20075;-43
2023/12/27 01:48:20;;;;;;;2.67;1.40;;;;;;;10.29;100.00;100689.50;5094430;28;20139;-41
2023/12/27 01:50:49;;;;;;;3.35;1.23;;;;;;;10.33;100.00;100690.22;5094475;28;20051;-42
2023/12/27 01:53:18;;;;;;;2.75;1.52;;;;;;;10.22;100.00;100696.09;5104408;28;20050;-42
2023/12/27 01:55:48;;;;;;;3.13;1.17;;;;;;;10.10;100.00;100699.38;5114676;28;20134;-42
2023/12/27 01:58:17;;;;;;;2.13;1.30;;;;;;;10.22;100.00;100688.09;5115148;28;20048;-44
2023/12/27 02:00:48;;;;;;;3.08;1.52;;;;;;;10.10;100.00;100698.50;5114816;28;20138;-43
2023/12/27 02:03:17;;;;;;;2.85;1.25;;;;;;;10.18;100.00;100690.97;5114703;28;20044;-41
2023/12/27 02:05:46;;;;;;;3.83;1.40;;;;;;;10.19;100.00;100693.56;5114673;27;20450;-42
2023/12/27 02:08:15;;;;;;;3.17;1.40;;;;;;;10.15;100.00;100692.00;5114474;28;20089;-43
2023/12/27 02:10:44;;;;;;;3.65;1.30;;;;;;;10.03;100.00;100705.94;5114580;28;20093;-42
2023/12/27 02:13:12;;;;;;;3.63;1.30;;;;;;;10.15;100.00;100708.00;5102004;28;20047;-42
2023/12/27 02:15:40;;;;;;;3.05;1.33;;;;;;;10.13;100.00;100704.53;5100717;28;20097;-44
2023/12/27 02:18:11;;;;;;;4.63;1.70;;;;;;;10.07;100.00;100704.88;5096351;28;20059;-43
2023/12/27 02:20:40;;;;;;;4.40;1.42;;;;;;;9.98;100.00;100711.53;5093841;28;20044;-40
2023/12/27 02:23:12;;;;;;;2.33;1.35;;;;;;;10.11;100.00;100711.75;5093740;28;20040;-41
2023/12/27 02:25:43;;;;;;;3.03;1.30;;;;;;;9.99;100.00;100717.72;5113510;28;20050;-41
2023/12/27 02:28:12;;;;;;;3.97;1.30;;;;;;;10.01;100.00;100723.81;5113845;28;20051;-43
2023/12/27 02:30:40;;;;;;;3.03;1.25;;;;;;;10.10;100.00;100714.50;5114038;28;20083;-41
2023/12/27 02:33:08;;;;;;;4.10;1.50;;;;;;;10.09;100.00;100713.63;5114044;28;20058;-43
2023/12/27 02:35:37;;;;;;;4.82;1.30;;;;;;;10.01;100.00;100721.16;5113877;28;20043;-42
2023/12/27 02:38:05;;;;;;;3.03;1.50;;;;;;;9.98;100.00;100716.00;5113989;28;20508;-42
2023/12/27 02:40:33;;;;;;;2.78;1.10;;;;;;;10.18;100.00;100718.50;5113915;28;20044;-42
2023/12/27 02:43:03;;;;;;;3.20;1.33;;;;;;;9.93;100.00;100723.34;5113965;28;20047;-42
2023/12/27 02:45:32;;;;;;;3.55;1.48;;;;;;;10.00;100.00;100716.75;5113603;28;20131;-42
2023/12/27 02:48:00;;;;;;;3.53;1.17;;;;;;;9.93;100.00;100718.88;5112682;28;20388;-41
2023/12/27 02:50:29;;;;;;;2.83;1.38;;;;;;;9.93;100.00;100713.53;5113819;28;20572;-42
2023/12/27 02:52:57;;;;;;;2.88;1.13;;;;;;;9.86;100.00;100711.28;5112986;28;20047;-42
2023/12/27 02:55:26;;;;;;;4.05;1.40;;;;;;;9.84;100.00;100713.13;5113968;28;20134;-42
2023/12/27 02:57:54;;;;;;;2.75;1.30;;;;;;;9.98;100.00;100721.31;5113922;28;20055;-42
2023/12/27 03:00:24;;;;;;;2.28;1.02;;;;;;;9.91;100.00;100718.09;5113896;28;20134;-42
2023/12/27 03:02:52;;;;;;;2.55;1.20;;;;;;;9.95;100.00;100725.00;5113626;28;20040;-42
2023/12/27 03:05:21;;;;;;;3.53;1.20;;;;;;;9.92;100.00;100726.94;5113656;28;20404;-43
2023/12/27 03:07:49;;;;;;;3.10;1.30;;;;;;;9.69;100.00;100715.63;5113422;28;20039;-41
2023/12/27 03:10:17;;;;;;;3.75;1.45;;;;;;;9.83;100.00;100724.72;5093991;28;20163;-44
2023/12/27 03:12:46;;;;;;;3.05;1.40;;;;;;;9.89;100.00;100713.78;5093255;28;20071;-43
2023/12/27 03:15:14;;;;;;;2.88;1.58;;;;;;;9.93;100.00;100718.00;5093153;28;20048;-42
2023/12/27 03:17:44;;;;;;;2.22;1.13;;;;;;;9.91;100.00;100720.75;5092852;28;20052;-42
2023/12/27 03:20:12;;;;;;;3.42;1.27;;;;;;;10.00;100.00;100724.75;5093103;28;20044;-43
2023/12/27 03:22:40;;;;;;;2.95;1.25;;;;;;;10.19;100.00;100733.56;5092776;28;20048;-42
2023/12/27 03:25:09;;;;;;;4.05;1.35;;;;;;;9.96;100.00;100736.53;5092769;28;20044;-43
2023/12/27 03:27:37;;;;;;;2.83;1.30;;;;;;;10.06;100.00;100745.78;5092857;28;20505;-42
2023/12/27 03:30:07;;;;;;;2.40;1.13;;;;;;;10.06;100.00;100744.94;5092178;28;20084;-42
2023/12/27 03:32:35;;;;;;;3.03;1.20;;;;;;;10.07;100.00;100742.19;5103114;28;20043;-42
2023/12/27 03:35:06;;;;;;;3.20;1.25;;;;;;;9.99;100.00;100744.34;5113040;28;20114;-43
2023/12/27 03:37:34;;;;;;;4.40;1.30;;;;;;;10.09;100.00;100756.28;5113085;28;20097;-42
2023/12/27 03:40:03;;;;;;;3.15;1.38;;;;;;;10.06;100.00;100758.25;5112491;28;20065;-42
2023/12/27 03:42:32;;;;;;;3.88;1.40;;;;;;;10.02;100.00;100761.06;5112480;28;20051;-43
2023/12/27 03:45:00;;;;;;;3.10;1.42;;;;;;;10.03;100.00;100756.56;5111267;28;20051;-41
2023/12/27 03:47:29;;;;;;;3.17;1.30;;;;;;;9.90;100.00;100772.31;5098247;28;20036;-41
2023/12/27 03:49:57;;;;;;;3.42;1.30;;;;;;;9.78;100.00;100766.75;5095547;28;20078;-41
2023/12/27 03:52:27;;;;;;;4.05;1.45;;;;;;;9.91;100.00;100767.84;5111677;28;20050;-43
2023/12/27 03:54:55;;;;;;;2.40;1.35;;;;;;;9.92;100.00;100765.09;5112349;27;20040;-43
2023/12/27 03:57:24;;;;;;;3.75;1.40;;;;;;;9.95;100.00;100772.13;5112425;28;20050;-42
2023/12/27 03:59:52;;;;;;;3.40;1.60;;;;;;;9.79;100.00;100769.31;5111422;28;20217;-42
2023/12/27 04:02:21;;;;;;;5.25;1.17;;;;;;;9.84;100.00;100771.75;5092021;28;20127;-41
2023/12/27 04:04:49;;;;;;;7.57;2.25;;;;;;;9.83;100.00;100776.22;5091827;28;20048;-42
2023/12/27 04:07:17;;;;;;;2.25;1.25;;;;;;;9.64;100.00;100770.91;5095321;28;20036;-42
2023/12/27 04:09:47;;;;;;;4.85;1.40;;;;;;;9.75;100.00;100781.09;5094827;28;20131;-42
2023/12/27 04:12:16;;;;;;;4.15;1.45;;;;;;;9.67;100.00;100776.13;5093837;28;20082;-43
2023/12/27 04:14:44;;;;;;;3.28;1.10;;;;;;;9.68;100.00;100775.19;5090042;28;20088;-41
2023/12/27 04:17:12;;;;;;;3.05;1.58;;;;;;;9.67;100.00;100781.44;5112163;27;20090;-43
2023/12/27 04:19:40;;;;;;;2.63;1.25;;;;;;;9.73;100.00;100788.25;5112099;28;20055;-41
2023/12/27 04:22:09;;;;;;;4.25;1.40;;;;;;;9.75;100.00;100784.59;5111863;28;20071;-42
2023/12/27 04:24:37;;;;;;;3.38;1.30;;;;;;;9.82;100.00;100789.63;5111622;28;20062;-42
2023/12/27 04:27:07;;;;;;;2.92;1.50;;;;;;;9.82;100.00;100795.81;5111539;28;20605;-43
2023/12/27 04:29:36;;;;;;;3.35;1.30;;;;;;;9.83;100.00;100796.66;5111479;28;20050;-43
2023/12/27 04:32:05;;;;;;;4.75;2.15;;;;;;;9.66;100.00;100797.50;5106000;28;20556;-41
2023/12/27 04:34:33;;;;;;;4.30;2.30;;;;;;;9.78;100.00;100802.25;5091204;28;20556;-42
2023/12/27 04:37:02;;;;;;;3.20;1.90;;;;;;;9.77;100.00;100802.31;5091337;28;20408;-42
2023/12/27 04:39:33;;;;;;;3.20;2.05;;;;;;;9.46;100.00;100799.31;5090990;28;20051;-41
2023/12/27 04:42:02;;;;;;;2.88;1.63;;;;;;;9.65;100.00;100803.75;5091281;28;20548;-41
2023/12/27 04:44:31;;;;;;;2.45;1.30;;;;;;;9.51;100.00;100801.75;5090687;28;20508;-43
2023/12/27 04:47:00;;;;;;;2.63;1.27;;;;;;;9.53;100.00;100799.00;5090979;28;20448;-42
2023/12/27 04:49:28;;;;;;;2.53;1.35;;;;;;;9.63;100.00;100809.16;5090993;28;20047;-42
2023/12/27 04:51:57;;;;;;;3.15;1.60;;;;;;;9.57;100.00;100805.94;5095680;28;20065;-42
2023/12/27 04:54:25;;;;;;;3.40;1.77;;;;;;;9.49;100.00;100814.28;5111419;28;20138;-41
2023/12/27 04:56:54;;;;;;;4.50;1.40;;;;;;;9.46;100.00;100817.09;5111237;28;20052;-41
2023/12/27 04:59:24;;;;;;;3.00;1.60;;;;;;;9.50;100.00;100818.66;5111289;28;20051;-42
2023/12/27 05:01:54;;;;;;;2.47;1.42;;;;;;;9.50;100.00;100831.97;5111115;28;20500;-42
2023/12/27 05:04:22;;;;;;;4.15;2.50;;;;;;;9.39;100.00;100835.13;5111012;28;20140;-42
2023/12/27 05:06:51;;;;;;;2.47;1.25;;;;;;;9.39;100.00;100839.59;5097594;28;20058;-42
2023/12/27 05:09:19;;;;;;;3.00;1.70;;;;;;;9.55;100.00;100839.75;5091095;28;20475;-42
2023/12/27 05:11:47;;;;;;;3.47;1.90;;;;;;;9.52;100.00;100846.06;5090654;28;20096;-41
2023/12/27 05:14:16;;;;;;;6.00;2.20;;;;;;;9.61;100.00;100842.13;5096203;28;20036;-42
2023/12/27 05:16:47;;;;;;;5.88;2.30;;;;;;;9.58;100.00;100856.47;5107813;28;20116;-42
2023/12/27 05:19:17;;;;;;;4.63;1.90;;;;;;;9.50;100.00;100853.28;5093615;28;20040;-42
2023/12/27 05:21:46;;;;;;;3.05;1.98;;;;;;;9.52;100.00;100854.06;5095044;28;20137;-42
2023/12/27 05:24:14;;;;;;;3.00;1.80;;;;;;;9.52;100.00;100863.84;5114301;28;20054;-42
2023/12/27 05:26:42;;;;;;;5.20;2.40;;;;;;;9.32;100.00;100865.63;5115191;28;20375;-41
2023/12/27 05:29:11;;;;;;;3.38;1.80;;;;;;;9.44;100.00;100864.19;5115137;28;20377;-43
2023/12/27 05:31:40;;;;;;;4.20;1.50;;;;;;;9.44;100.00;100869.53;5115402;28;20090;-41
2023/12/27 05:34:08;;;;;;;3.55;1.58;;;;;;;9.46;100.00;100867.69;5115106;28;20043;-41
2023/12/27 05:36:41;;;;;;;3.17;1.40;;;;;;;9.53;100.00;100862.91;5115143;28;20040;-43
2023/12/27 05:39:12;;;;;;;5.18;1.75;;;;;;;9.46;100.00;100873.00;5108024;28;20131;-42
2023/12/27 05:41:40;;;;;;;4.68;1.40;;;;;;;9.28;100.00;100876.50;5094432;28;20131;-43
2023/12/27 05:44:09;;;;;;;7.00;1.73;;;;;;;9.33;100.00;100888.66;5094465;28;20139;-42
2023/12/27 05:46:37;;;;;;;3.70;1.40;;;;;;;9.30;100.00;100882.63;5094600;28;20119;-42
2023/12/27 05:49:05;;;;;;;5.00;1.52;;;;;;;9.28;100.00;100892.47;5094393;28;20460;-43
2023/12/27 05:51:34;;;;;;;3.95;1.40;;;;;;;9.24;100.00;100889.06;5094475;28;20127;-42
2023/12/27 05:54:04;;;;;;;3.53;1.83;;;;;;;9.27;100.00;100888.94;5094001;28;20078;-45
2023/12/27 05:56:33;;;;;;;5.68;1.90;;;;;;;9.37;100.00;100906.25;5094364;28;20504;-42
2023/12/27 05:59:02;;;;;;;3.33;1.70;;;;;;;9.36;100.00;100899.19;5094417;28;20066;-43
2023/12/27 06:01:31;;;;;;;7.78;2.20;;;;;;;9.39;100.00;100903.50;5098784;28;20043;-42
2023/12/27 06:04:00;;;;;;;3.53;1.30;;;;;;;9.38;100.00;100917.75;5114719;28;20126;-43
2023/12/27 06:06:29;;;;;;;3.67;1.38;;;;;;;9.30;100.00;100907.44;5114584;28;20434;-42
2023/12/27 06:08:57;;;;;;;3.78;1.58;;;;;;;9.29;100.00;100918.16;5114145;28;20510;-42
2023/12/27 06:11:27;;;;;;;4.55;1.45;;;;;;;9.29;100.00;100918.16;5114273;28;20477;-42
2023/12/27 06:13:56;;;;;;;4.00;1.50;;;;;;;9.31;100.00;100921.63;5114428;28;20039;-42
2023/12/27 06:16:24;;;;;;;5.18;1.40;;;;;;;9.32;100.00;100918.00;5114158;28;20043;-42
2023/12/27 06:18:54;;;;;;;2.88;1.30;;;;;;;9.31;100.00;100924.28;5099750;27;20044;-43
2023/12/27 06:21:23;;;;;;;3.72;1.40;;;;;;;9.06;100.00;100917.34;5093601;28;20113;-42
2023/12/27 06:23:51;;;;;;;3.33;1.45;;;;;;;9.12;100.00;100927.75;5093628;28;20466;-42
2023/12/27 06:26:19;;;;;;;4.20;1.60;;;;;;;9.21;100.00;100936.25;5093660;28;20058;-43
2023/12/27 06:28:49;;;;;;;2.95;1.48;;;;;;;9.14;100.00;100941.84;5092190;28;20048;-42
2023/12/27 06:31:17;;;;;;;3.25;1.30;;;;;;;9.17;100.00;100941.72;5093439;28;20163;-42
2023/12/27 06:33:45;;;;;;;4.05;1.70;;;;;;;9.22;100.00;100953.97;5093885;28;20044;-42
2023/12/27 06:36:14;;;;;;;4.53;1.60;;;;;;;9.29;100.00;100948.31;5093603;28;20117;-42
2023/12/27 06:38:45;;;;;;;3.00;1.33;;;;;;;9.30;100.00;100954.50;5092721;28;20440;-42
2023/12/27 06:41:16;;;;;;;6.63;1.52;;;;;;;9.15;100.00;100969.31;5093440;28;20551;-42
2023/12/27 06:43:45;;;;;;;4.05;1.40;;;;;;;8.93;100.00;100974.69;5106655;28;20485;-43
2023/12/27 06:46:15;;;;;;;5.22;1.60;;;;;;;8.91;100.00;100989.88;5113733;28;20100;-43
2023/12/27 06:48:43;;;;;;;5.95;1.77;;;;;;;8.91;100.00;100989.00;5113483;27;20043;-42
2023/12/27 06:51:13;;;;;;;3.10;1.30;;;;;;;9.00;100.00;100992.13;5113377;28;20146;-42
2023/12/27 06:53:42;;;;;;;3.90;1.50;;;;;;;9.06;100.00;100993.66;5113497;28;20051;-42
2023/12/27 06:56:12;;;;;;;3.30;1.77;;;;;;;9.00;100.00;101001.91;5111346;28;20073;-42
2023/12/27 06:58:40;;;;;;;5.07;1.60;;;;;;;8.96;100.00;101003.81;5093237;28;20048;-43
2023/12/27 07:01:09;;;;;;;3.67;1.80;;;;;;;8.97;100.00;100997.56;5093008;28;20409;-42
2023/12/27 07:03:39;;;;;;;4.10;1.60;;;;;;;8.97;100.00;101008.22;5093598;28;20052;-42
2023/12/27 07:06:08;;;;;;;6.70;1.83;;;;;;;9.00;100.00;101007.25;5093251;28;20051;-42
2023/12/27 07:08:37;;;;;;;6.10;1.77;;;;;;;8.81;100.00;101009.78;5093319;28;20059;-42
2023/12/27 07:11:05;;;;;;;4.95;1.67;;;;;;;9.01;100.00;101004.50;5093003;28;20040;-41
2023/12/27 07:13:35;;;;;;;5.45;2.00;;;;;;;8.93;100.00;101009.28;5093095;28;20048;-42
2023/12/27 07:16:04;;;;;;;4.60;1.73;;;;;;;9.08;100.00;101013.97;5086244;28;20541;-42
2023/12/27 07:18:32;;;;;;;4.93;1.85;;;;;;;9.11;100.00;101029.81;5104973;28;20039;-44
2023/12/27 07:21:05;;;;;;;5.18;1.80;;;;;;;9.13;100.00;101035.06;5110004;28;20056;-43
2023/12/27 07:23:34;;;;;;;4.70;1.70;;;;;;;9.24;100.00;101032.81;5093060;28;20076;-42
2023/12/27 07:26:04;;;;;;;3.83;1.80;;;;;;;9.25;100.00;101039.00;5093667;28;20502;-42
2023/12/27 07:28:32;;;;;;;4.28;1.50;;;;;;;9.25;100.00;101034.53;5103243;28;20044;-42
2023/12/27 07:31:00;;;;;;;3.50;1.52;;;;;;;9.33;100.00;101039.53;5094173;28;20136;-41
2023/12/27 07:33:29;;;;;;;5.10;1.60;;;;;;;9.32;100.00;101041.34;5108130;28;20487;-43
2023/12/27 07:35:58;;;;;;;5.72;1.65;;;;;;;9.42;100.00;101039.16;5111177;28;20060;-43
2023/12/27 07:38:30;;;;;;;5.68;1.88;;;;;;;9.49;100.00;101043.28;5092499;28;20390;-43
2023/12/27 07:40:59;;;;;;;5.88;1.90;;;;;;;9.56;100.00;101044.78;5092249;28;20052;-42
2023/12/27 07:43:27;;;;;;;13.15;6.05;;;;;;;9.55;100.00;101043.00;5092206;28;20047;-42
2023/12/27 07:45:55;;;;;;;5.55;2.35;;;;;;;9.56;100.00;101049.22;5093448;28;20134;-42
2023/12/27 07:48:24;;;;;;;3.67;1.80;;;;;;;9.64;100.00;101047.94;5100313;28;20039;-42
2023/12/27 07:50:53;;;;;;;5.20;1.85;;;;;;;9.65;100.00;101049.69;5097718;28;20047;-41
2023/12/27 07:53:21;;;;;;;3.42;1.70;;;;;;;9.66;100.00;101040.78;5098918;28;20454;-41
2023/12/27 07:55:51;;;;;;;4.57;1.70;;;;;;;9.74;100.00;101043.94;5097083;28;20043;-42
2023/12/27 07:58:20;;;;;;;3.65;1.73;;;;;;;9.84;100.00;101043.53;5104418;28;20492;-42
2023/12/27 08:00:48;;;;;;;4.90;1.98;;;;;;;9.86;100.00;101057.69;5096383;28;20096;-40
2023/12/27 08:03:17;;;;;;;4.40;1.80;;;;;;;9.87;100.00;101068.25;5105484;28;20389;-42
2023/12/27 08:05:45;;;;;;;5.55;2.55;;;;;;;9.97;100.00;101068.72;5098301;28;20040;-42
2023/12/27 08:08:14;;;;;;;6.68;2.28;;;;;;;9.93;100.00;101064.44;5108039;28;20280;-42
2023/12/27 08:10:43;;;;;;;4.80;2.00;;;;;;;10.04;100.00;101064.84;5112360;28;20665;-44
2023/12/27 08:13:13;;;;;;;6.53;2.00;;;;;;;10.15;100.00;101083.88;5109889;27;20044;-43
2023/12/27 08:15:41;;;;;;;4.85;1.60;;;;;;;10.26;100.00;101083.44;5091795;28;20086;-42
2023/12/27 08:18:10;;;;;;;3.83;1.60;;;;;;;10.32;100.00;101083.13;5091635;28;20522;-43
2023/12/27 08:20:38;;;;;;;5.30;1.60;;;;;;;10.34;100.00;101091.09;5091256;28;20050;-43
2023/12/27 08:23:06;;;;;;;3.88;1.98;;;;;;;10.42;100.00;101086.25;5091681;28;20051;-43
2023/12/27 08:25:36;;;;;;;3.10;1.48;;;;;;;10.37;100.00;101090.94;5095034;28;20077;-42
2023/12/27 08:28:05;;;;;;;5.38;1.67;;;;;;;10.19;100.00;101096.13;5097431;28;20511;-43
2023/12/27 08:30:35;;;;;;;4.72;1.70;;;;;;;9.80;100.00;101109.44;5098596;28;20202;-42
2023/12/27 08:33:06;;;;;;;4.50;1.60;;;;;;;9.65;100.00;101112.72;5097568;28;20054;-40
2023/12/27 08:35:35;;;;;;;5.13;1.85;;;;;;;9.61;100.00;101114.69;5096414;28;20463;-41
2023/12/27 08:38:05;;;;;;;4.13;1.70;;;;;;;9.67;100.00;101122.41;5096359;28;20134;-41
2023/12/27 08:40:34;;;;;;;3.90;1.60;;;;;;;9.64;100.00;101133.19;5099596;28;20040;-42
2023/12/27 08:43:03;;;;;;;5.53;1.70;;;;;;;9.59;100.00;101145.84;5096670;28;20097;-40
2023/12/27 08:45:31;;;;;;;3.75;1.60;;;;;;;9.73;100.00;101142.59;5098496;28;20123;-42
2023/12/27 08:48:01;;;;;;;8.88;2.22;;;;;;;9.72;100.00;101157.69;5098179;28;20135;-42
2023/12/27 08:50:30;;;;;;;4.47;2.13;;;;;;;9.73;100.00;101163.91;5095379;28;20490;-42
2023/12/27 08:52:59;;;;;;;5.40;2.05;;;;;;;9.84;100.00;101172.28;5095855;28;20040;-41
2023/12/27 08:55:27;;;;;;;5.32;1.73;;;;;;;9.81;100.00;101177.75;5109633;28;20079;-41
2023/12/27 08:57:55;;;;;;;4.47;1.60;;;;;;;9.88;100.00;101173.06;5097729;28;20126;-41
2023/12/27 09:00:24;;;;;;;3.53;1.73;;;;;;;10.04;100.00;101185.66;5092287;28;20056;-40
2023/12/27 09:02:53;;;;;;;5.93;1.73;;;;;;;10.08;100.00;101186.38;5090948;28;20056;-42
2023/12/27 09:05:22;;;;;;;5.78;1.90;;;;;;;10.15;100.00;101190.53;5091668;28;20056;-40
2023/12/27 09:07:50;;;;;;;5.25;2.05;;;;;;;10.07;100.00;101195.31;5099361;28;20448;-42
2023/12/27 09:10:19;;;;;;;3.97;1.83;;;;;;;10.23;100.00;101195.53;5090608;28;20044;-41
2023/12/27 09:12:47;;;;;;;4.40;1.70;;;;;;;10.17;100.00;101199.31;5093087;28;20040;-44
2023/12/27 09:15:16;;;;;;;5.35;1.92;;;;;;;10.17;100.00;101201.97;5091268;28;20059;-45
2023/12/27 09:17:44;;;;;;;3.67;1.40;;;;;;;10.08;100.00;101197.06;5089665;28;20044;-42
2023/12/27 09:20:12;;;;;;;3.40;1.75;;;;;;;10.13;100.00;101203.03;5091018;28;20052;-42
2023/12/27 09:22:42;;;;;;;4.72;1.80;;;;;;;10.09;100.00;101201.44;5091257;28;20542;-42
2023/12/27 09:25:12;;;;;;;4.93;1.90;;;;;;;10.07;100.00;101211.31;5091577;28;20119;-41
2023/12/27 09:27:40;;;;;;;5.78;2.08;;;;;;;10.13;100.00;101218.16;5091130;28;20052;-40
2023/12/27 09:30:09;;;;;;;4.55;1.95;;;;;;;10.13;100.00;101219.03;5090662;28;20040;-40
2023/12/27 09:32:39;;;;;;;5.55;1.70;;;;;;;10.09;100.00;101212.09;5090765;28;20076;-41
2023/12/27 09:35:11;;;;;;;4.63;1.80;;;;;;;10.03;100.00;101215.88;5102957;28;20058;-42
2023/12/27 09:37:39;;;;;;;4.38;1.65;;;;;;;10.09;100.00;101217.44;5091440;28;20488;-50
2023/12/27 09:40:11;;;;;;;4.45;1.80;;;;;;;10.01;100.00;101212.44;5090919;28;20068;-40
2023/12/27 09:42:41;;;;;;;4.18;1.67;;;;;;;9.95;100.00;101206.50;5095345;28;20039;-43
2023/12/27 09:45:15;;;;;;;6.40;1.88;;;;;;;10.11;100.00;101207.56;5096008;28;20044;-41
2023/12/27 09:47:47;;;;;;;3.67;1.80;;;;;;;10.05;100.00;101197.19;5087819;28;20048;-41
2023/12/27 09:50:16;;;;;;;5.53;1.75;;;;;;;10.09;100.00;101212.09;5096169;28;20097;-42
2023/12/27 09:52:45;;;;;;;6.57;2.08;;;;;;;10.08;100.00;101212.19;5096392;28;20060;-41
2023/12/27 09:55:15;;;;;;;4.93;1.50;;;;;;;10.12;100.00;101219.09;5096305;28;20389;-41
2023/12/27 09:57:44;;;;;;;4.00;2.05;;;;;;;10.08;100.00;101215.72;5090407;28;20437;-40
2023/12/27 10:00:13;;;;;;;6.22;1.90;;;;;;;10.15;100.00;101203.84;5093353;28;20050;-42
2023/12/27 10:02:42;;;;;;;5.55;2.35;;;;;;;10.17;100.00;101198.44;5099673;28;20055;-42
2023/12/27 10:05:20;;;;;;;6.60;1.60;;;;;;;10.17;100.00;101194.00;5101771;28;20044;-42
2023/12/27 10:07:49;;;;;;;5.47;1.83;;;;;;;10.18;100.00;101209.03;5101644;28;20047;-41
2023/12/27 10:10:19;;;;;;;3.47;2.00;;;;;;;10.13;100.00;101200.38;5093115;28;20077;-42
2023/12/27 10:12:56;;;;;;;6.10;2.10;;;;;;;10.14;100.00;101183.47;5092352;28;20093;-42
2023/12/27 10:15:25;;;;;;;4.70;2.13;;;;;;;10.32;100.00;101195.13;5092835;28;20047;-41
2023/12/27 10:17:53;;;;;;;8.93;2.08;;;;;;;10.32;100.00;101201.31;5096059;28;20044;-41
2023/12/27 10:20:32;;;;;;;4.88;2.00;;;;;;;10.31;100.00;101206.72;5092733;28;20123;-43
2023/12/27 10:23:01;;;;;;;6.35;2.10;;;;;;;10.36;100.00;101199.41;5095448;28;20481;-43
2023/12/27 10:25:32;;;;;;;4.00;1.75;;;;;;;10.27;100.00;101198.00;5093113;28;20054;-41
2023/12/27 10:28:01;;;;;;;6.28;1.65;;;;;;;10.29;100.00;101195.28;5093235;28;20460;-41
2023/12/27 10:30:30;;;;;;;5.88;2.20;;;;;;;10.48;100.00;101206.00;5093685;28;20043;-40
2023/12/27 10:33:00;;;;;;;4.88;2.10;;;;;;;10.26;100.00;101195.41;5106322;28;20082;-41
2023/12/27 10:35:31;;;;;;;5.88;1.90;;;;;;;10.36;100.00;101195.88;5102359;28;20076;-42
2023/12/27 10:38:00;;;;;;;5.70;1.45;;;;;;;10.39;100.00;101191.25;5096505;28;20055;-42
2023/12/27 10:40:29;;;;;;;6.55;2.00;;;;;;;10.37;100.00;101185.13;5101147;28;20044;-43
2023/12/27 10:42:59;;;;;;;4.80;1.85;;;;;;;10.39;100.00;101179.72;5093874;28;20051;-40
2023/12/27 10:45:30;;;;;;;5.95;1.95;;;;;;;10.48;100.00;101187.31;5089138;28;20077;-41
2023/12/27 10:48:00;;;;;;;4.63;1.80;;;;;;;10.64;100.00;101180.38;5094584;28;20350;-41
2023/12/27 10:50:30;;;;;;;5.30;2.20;;;;;;;10.61;100.00;101180.50;5095853;28;20153;-42
2023/12/27 10:53:04;;;;;;;6.03;2.20;;;;;;;10.62;100.00;101176.06;5097180;28;20089;-41
2023/12/27 10:55:33;;;;;;;6.72;2.42;;;;;;;10.82;100.00;101179.53;5096403;28;20043;-43
2023/12/27 10:58:07;;;;;;;6.75;2.28;;;;;;;10.85;100.00;101174.03;5099114;28;20130;-42
2023/12/27 11:00:35;;;;;;;4.97;1.95;;;;;;;11.02;100.00;101175.91;5100049;28;20504;-41
2023/12/27 11:03:06;;;;;;;4.47;1.70;;;;;;;10.97;100.00;101172.59;5099163;28;20101;-41
2023/12/27 11:05:37;;;;;;;5.88;2.00;;;;;;;10.99;100.00;101168.03;5099567;28;20990;-42
2023/12/27 11:08:07;;;;;;;5.18;1.63;;;;;;;10.83;100.00;101170.56;5099685;28;20134;-42
2023/12/27 11:10:36;;;;;;;3.97;1.65;;;;;;;10.95;100.00;101162.94;5099709;28;20052;-43
2023/12/27 11:13:10;;;;;;;3.22;1.52;;;;;;;10.81;100.00;101163.59;5098604;28;20093;-43
2023/12/27 11:15:44;;;;;;;6.25;2.17;;;;;;;10.96;100.00;101159.31;5097364;28;20085;-42
2023/12/27 11:18:13;;;;;;;4.85;1.80;;;;;;;10.97;100.00;101161.03;5093224;28;20055;-42
2023/12/27 11:20:42;;;;;;;10.75;4.55;;;;;;;11.16;100.00;101151.22;5097021;28;20131;-42
2023/12/27 11:23:10;;;;;;;38.03;18.55;;;;;;;11.18;100.00;101144.00;5096045;28;20085;-43
2023/12/27 11:25:38;;;;;;;6.45;3.08;;;;;;;11.08;100.00;101142.72;5100983;28;20044;-41
2023/12/27 11:28:08;;;;;;;4.85;2.05;;;;;;;11.04;100.00;101142.00;5100024;28;20035;-41
2023/12/27 11:30:38;;;;;;;3.78;1.73;;;;;;;10.98;100.00;101144.94;5099407;28;20169;-41